sensor_id;sensor_type;location;lat;lon;timestamp;temperature;humidity
18779;DHT22;9518;51.720;14.384;2023-04-22T00:01:28;6.30;1.00
18779;DHT22;9518;51.720;14.384;2023-04-22T00:03:55;6.20;99.90
18779;DHT22;9518;51.720;14.384;2023-04-22T00:06:22;6.10;1.00
18779;DHT22;9518;51.720;14.384;2023-04-22T00:08:49;5.90;1.00
18779;DHT22;9518;51.720;14.384;2023-04-22T00:11:17;5.70;1.00
18779;DHT22;9518;51.720;14.384;2023-04-22T00:13:44;5.60;99.90
18779;DHT22;9518;51.720;14.384;2023-04-22T00:16:11;5.50;99.90
18779;DHT22;9518;51.720;14.384;2023-04-22T00:18:38;5.50;1.00
18779;DHT22;9518;51.720;14.384;2023-04-22T00:21:06;5.30;99.90
18779;DHT22;9518;51.720;14.384;2023-04-22T00:23:33;5.30;1.00
18779;DHT22;9518;51.720;14.384;2023-04-22T00:26:00;5.20;99.90
18779;DHT22;9518;51.720;14.384;2023-04-22T00:28:28;5.20;1.00
18779;DHT22;9518;51.720;14.384;2023-04-22T00:30:55;5.10;99.90
18779;DHT22;9518;51.720;14.384;2023-04-22T00:33:23;5.10;99.90
18779;DHT22;9518;51.720;14.384;2023-04-22T00:35:50;5.10;1.00
18779;DHT22;9518;51.720;14.384;2023-04-22T00:38:19;5.10;99.90
18779;DHT22;9518;51.720;14.384;2023-04-22T00:40:46;5.20;1.00
18779;DHT22;9518;51.720;14.384;2023-04-22T00:43:15;5.10;1.00
18779;DHT22;9518;51.720;14.384;2023-04-22T00:45:43;5.10;99.90
18779;DHT22;9518;51.720;14.384;2023-04-22T00:48:13;5.10;99.90
18779;DHT22;9518;51.720;14.384;2023-04-22T00:50:40;5.10;99.90
18779;DHT22;9518;51.720;14.384;2023-04-22T00:53:07;5.00;1.00
18779;DHT22;9518;51.720;14.384;2023-04-22T00:55:34;5.00;1.00
18779;DHT22;9518;51.720;14.384;2023-04-22T00:58:02;4.90;1.00
18779;DHT22;9518;51.720;14.384;2023-04-22T01:00:30;4.90;1.00
18779;DHT22;9518;51.720;14.384;2023-04-22T01:02:58;4.80;1.00
18779;DHT22;9518;51.720;14.384;2023-04-22T01:05:26;4.80;99.90
18779;DHT22;9518;51.720;14.384;2023-04-22T01:07:54;4.70;99.90
18779;DHT22;9518;51.720;14.384;2023-04-22T01:10:22;4.70;1.00
18779;DHT22;9518;51.720;14.384;2023-04-22T01:12:49;4.60;99.90
18779;DHT22;9518;51.720;14.384;2023-04-22T01:15:16;4.50;1.00
18779;DHT22;9518;51.720;14.384;2023-04-22T01:17:44;4.50;1.00
18779;DHT22;9518;51.720;14.384;2023-04-22T01:20:12;4.50;99.90
18779;DHT22;9518;51.720;14.384;2023-04-22T01:22:41;4.50;99.90
18779;DHT22;9518;51.720;14.384;2023-04-22T01:25:10;4.40;99.90
18779;DHT22;9518;51.720;14.384;2023-04-22T01:27:38;4.30;1.00
18779;DHT22;9518;51.720;14.384;2023-04-22T01:30:07;4.30;1.00
18779;DHT22;9518;51.720;14.384;2023-04-22T01:32:34;4.30;1.00
18779;DHT22;9518;51.720;14.384;2023-04-22T01:35:01;4.30;1.00
18779;DHT22;9518;51.720;14.384;2023-04-22T01:37:28;4.20;1.00
18779;DHT22;9518;51.720;14.384;2023-04-22T01:39:57;4.20;1.00
18779;DHT22;9518;51.720;14.384;2023-04-22T01:42:25;4.10;1.00
18779;DHT22;9518;51.720;14.384;2023-04-22T01:44:52;4.10;1.00
18779;DHT22;9518;51.720;14.384;2023-04-22T01:47:19;4.10;1.00
18779;DHT22;9518;51.720;14.384;2023-04-22T01:49:46;4.00;1.00
18779;DHT22;9518;51.720;14.384;2023-04-22T01:52:14;4.00;1.00
18779;DHT22;9518;51.720;14.384;2023-04-22T01:54:41;4.00;1.00
18779;DHT22;9518;51.720;14.384;2023-04-22T01:57:11;3.90;1.00
18779;DHT22;9518;51.720;14.384;2023-04-22T01:59:42;3.90;1.00
18779;DHT22;9518;51.720;14.384;2023-04-22T02:02:09;3.90;1.00
18779;DHT22;9518;51.720;14.384;2023-04-22T02:04:36;3.90;1.00
18779;DHT22;9518;51.720;14.384;2023-04-22T02:07:03;4.00;99.90
18779;DHT22;9518;51.720;14.384;2023-04-22T02:09:32;4.00;1.00
18779;DHT22;9518;51.720;14.384;2023-04-22T02:12:00;3.90;1.00
18779;DHT22;9518;51.720;14.384;2023-04-22T02:14:27;3.90;1.00
18779;DHT22;9518;51.720;14.384;2023-04-22T02:16:55;3.80;1.00
18779;DHT22;9518;51.720;14.384;2023-04-22T02:19:22;3.90;1.00
18779;DHT22;9518;51.720;14.384;2023-04-22T02:21:49;3.90;1.00
18779;DHT22;9518;51.720;14.384;2023-04-22T02:24:16;3.90;1.00
18779;DHT22;9518;51.720;14.384;2023-04-22T02:26:43;4.00;1.00
18779;DHT22;9518;51.720;14.384;2023-04-22T02:29:10;4.10;1.00
18779;DHT22;9518;51.720;14.384;2023-04-22T02:31:37;4.00;1.00
18779;DHT22;9518;51.720;14.384;2023-04-22T02:34:06;4.00;1.00
18779;DHT22;9518;51.720;14.384;2023-04-22T02:36:32;4.00;1.00
18779;DHT22;9518;51.720;14.384;2023-04-22T02:39:00;3.90;1.00
18779;DHT22;9518;51.720;14.384;2023-04-22T02:41:28;3.90;1.00
18779;DHT22;9518;51.720;14.384;2023-04-22T02:43:55;4.00;1.00
18779;DHT22;9518;51.720;14.384;2023-04-22T02:46:21;3.90;1.00
18779;DHT22;9518;51.720;14.384;2023-04-22T02:48:48;4.00;1.00
18779;DHT22;9518;51.720;14.384;2023-04-22T02:51:17;4.00;1.00
18779;DHT22;9518;51.720;14.384;2023-04-22T02:53:44;3.90;1.00
18779;DHT22;9518;51.720;14.384;2023-04-22T02:56:11;3.90;1.00
18779;DHT22;9518;51.720;14.384;2023-04-22T02:58:38;3.90;1.00
18779;DHT22;9518;51.720;14.384;2023-04-22T03:01:05;3.90;1.00
18779;DHT22;9518;51.720;14.384;2023-04-22T03:03:32;3.80;1.00
18779;DHT22;9518;51.720;14.384;2023-04-22T03:05:59;3.80;1.00
18779;DHT22;9518;51.720;14.384;2023-04-22T03:08:27;3.80;1.00
18779;DHT22;9518;51.720;14.384;2023-04-22T03:10:54;3.80;1.00
18779;DHT22;9518;51.720;14.384;2023-04-22T03:13:21;3.80;1.00
18779;DHT22;9518;51.720;14.384;2023-04-22T03:15:48;3.70;1.00
18779;DHT22;9518;51.720;14.384;2023-04-22T03:18:15;3.70;1.00
18779;DHT22;9518;51.720;14.384;2023-04-22T03:20:42;3.60;1.00
18779;DHT22;9518;51.720;14.384;2023-04-22T03:23:09;3.60;1.00
18779;DHT22;9518;51.720;14.384;2023-04-22T03:25:37;3.70;1.00
18779;DHT22;9518;51.720;14.384;2023-04-22T03:28:07;3.70;1.00
18779;DHT22;9518;51.720;14.384;2023-04-22T03:30:34;3.70;1.00
18779;DHT22;9518;51.720;14.384;2023-04-22T03:33:01;3.60;1.00
18779;DHT22;9518;51.720;14.384;2023-04-22T03:35:28;3.70;22.20
18779;DHT22;9518;51.720;14.384;2023-04-22T03:37:55;3.70;62.80
18779;DHT22;9518;51.720;14.384;2023-04-22T03:40:21;3.70;94.40
18779;DHT22;9518;51.720;14.384;2023-04-22T03:42:50;3.70;71.40
18779;DHT22;9518;51.720;14.384;2023-04-22T03:45:17;3.70;99.90
18779;DHT22;9518;51.720;14.384;2023-04-22T03:47:44;3.70;99.90
18779;DHT22;9518;51.720;14.384;2023-04-22T03:50:14;3.80;99.90
18779;DHT22;9518;51.720;14.384;2023-04-22T03:52:41;3.80;99.90
18779;DHT22;9518;51.720;14.384;2023-04-22T03:55:08;3.80;99.90
18779;DHT22;9518;51.720;14.384;2023-04-22T03:57:35;3.70;99.90
18779;DHT22;9518;51.720;14.384;2023-04-22T04:00:05;3.70;99.90
18779;DHT22;9518;51.720;14.384;2023-04-22T04:02:32;3.70;99.90
18779;DHT22;9518;51.720;14.384;2023-04-22T04:04:59;3.70;99.90
18779;DHT22;9518;51.720;14.384;2023-04-22T04:07:26;3.70;99.90
18779;DHT22;9518;51.720;14.384;2023-04-22T04:09:53;3.70;99.90
18779;DHT22;9518;51.720;14.384;2023-04-22T04:12:20;3.80;99.90
18779;DHT22;9518;51.720;14.384;2023-04-22T04:14:47;3.80;99.90
18779;DHT22;9518;51.720;14.384;2023-04-22T04:17:15;3.80;99.90
18779;DHT22;9518;51.720;14.384;2023-04-22T04:19:42;3.90;99.90
18779;DHT22;9518;51.720;14.384;2023-04-22T04:22:09;3.90;99.90
18779;DHT22;9518;51.720;14.384;2023-04-22T04:24:36;4.00;99.90
18779;DHT22;9518;51.720;14.384;2023-04-22T04:27:06;4.10;99.90
18779;DHT22;9518;51.720;14.384;2023-04-22T04:29:33;4.10;99.90
18779;DHT22;9518;51.720;14.384;2023-04-22T04:32:00;4.20;99.90
18779;DHT22;9518;51.720;14.384;2023-04-22T04:34:29;4.20;99.90
18779;DHT22;9518;51.720;14.384;2023-04-22T04:36:56;4.30;99.90
18779;DHT22;9518;51.720;14.384;2023-04-22T04:39:23;4.40;99.90
18779;DHT22;9518;51.720;14.384;2023-04-22T04:41:51;4.50;99.90
18779;DHT22;9518;51.720;14.384;2023-04-22T04:44:19;4.60;99.90
18779;DHT22;9518;51.720;14.384;2023-04-22T04:46:46;4.70;99.90
18779;DHT22;9518;51.720;14.384;2023-04-22T04:49:15;4.80;99.90
18779;DHT22;9518;51.720;14.384;2023-04-22T04:51:43;4.90;99.90
18779;DHT22;9518;51.720;14.384;2023-04-22T04:54:10;5.00;99.90
18779;DHT22;9518;51.720;14.384;2023-04-22T04:56:37;5.10;99.90
18779;DHT22;9518;51.720;14.384;2023-04-22T04:59:04;5.20;99.90
18779;DHT22;9518;51.720;14.384;2023-04-22T05:01:31;5.40;99.90
18779;DHT22;9518;51.720;14.384;2023-04-22T05:03:58;5.50;99.90
18779;DHT22;9518;51.720;14.384;2023-04-22T05:06:25;5.60;99.90
18779;DHT22;9518;51.720;14.384;2023-04-22T05:08:54;5.70;99.90
18779;DHT22;9518;51.720;14.384;2023-04-22T05:11:21;5.80;99.90
18779;DHT22;9518;51.720;14.384;2023-04-22T05:13:48;6.00;99.90
18779;DHT22;9518;51.720;14.384;2023-04-22T05:16:15;6.10;99.90
18779;DHT22;9518;51.720;14.384;2023-04-22T05:18:42;6.30;99.90
18779;DHT22;9518;51.720;14.384;2023-04-22T05:21:08;6.40;99.90
18779;DHT22;9518;51.720;14.384;2023-04-22T05:23:35;6.60;99.90
18779;DHT22;9518;51.720;14.384;2023-04-22T05:26:04;6.80;99.90
18779;DHT22;9518;51.720;14.384;2023-04-22T05:28:31;7.00;99.90
18779;DHT22;9518;51.720;14.384;2023-04-22T05:30:58;7.20;99.90
18779;DHT22;9518;51.720;14.384;2023-04-22T05:33:25;7.40;99.90
18779;DHT22;9518;51.720;14.384;2023-04-22T05:35:55;7.60;99.90
18779;DHT22;9518;51.720;14.384;2023-04-22T05:38:22;7.70;99.90
18779;DHT22;9518;51.720;14.384;2023-04-22T05:40:49;7.90;99.90
18779;DHT22;9518;51.720;14.384;2023-04-22T05:43:20;8.10;99.90
18779;DHT22;9518;51.720;14.384;2023-04-22T05:45:47;8.30;99.90
18779;DHT22;9518;51.720;14.384;2023-04-22T05:48:14;8.50;99.90
18779;DHT22;9518;51.720;14.384;2023-04-22T05:50:41;8.60;99.90
18779;DHT22;9518;51.720;14.384;2023-04-22T05:53:08;8.90;99.90
18779;DHT22;9518;51.720;14.384;2023-04-22T05:55:35;9.10;99.90
18779;DHT22;9518;51.720;14.384;2023-04-22T05:58:02;9.30;99.90
18779;DHT22;9518;51.720;14.384;2023-04-22T06:00:30;9.50;99.90
18779;DHT22;9518;51.720;14.384;2023-04-22T06:02:57;9.70;99.90
18779;DHT22;9518;51.720;14.384;2023-04-22T06:05:24;9.80;99.90
18779;DHT22;9518;51.720;14.384;2023-04-22T06:07:51;10.00;99.90
18779;DHT22;9518;51.720;14.384;2023-04-22T06:10:18;10.20;99.90
18779;DHT22;9518;51.720;14.384;2023-04-22T06:12:45;10.40;99.90
18779;DHT22;9518;51.720;14.384;2023-04-22T06:15:12;10.60;99.90
18779;DHT22;9518;51.720;14.384;2023-04-22T06:17:40;10.80;99.90
18779;DHT22;9518;51.720;14.384;2023-04-22T06:20:10;11.00;99.90
18779;DHT22;9518;51.720;14.384;2023-04-22T06:22:37;11.20;99.90
18779;DHT22;9518;51.720;14.384;2023-04-22T06:25:05;11.40;99.90
18779;DHT22;9518;51.720;14.384;2023-04-22T06:27:32;11.60;99.90
18779;DHT22;9518;51.720;14.384;2023-04-22T06:29:59;11.80;97.70
18779;DHT22;9518;51.720;14.384;2023-04-22T06:32:27;11.90;98.70
18779;DHT22;9518;51.720;14.384;2023-04-22T06:34:55;12.10;96.60
18779;DHT22;9518;51.720;14.384;2023-04-22T06:37:22;12.20;97.90
18779;DHT22;9518;51.720;14.384;2023-04-22T06:39:51;12.40;93.20
18779;DHT22;9518;51.720;14.384;2023-04-22T06:42:17;12.60;93.80
18779;DHT22;9518;51.720;14.384;2023-04-22T06:44:45;12.80;93.90
18779;DHT22;9518;51.720;14.384;2023-04-22T06:47:11;13.00;92.70
18779;DHT22;9518;51.720;14.384;2023-04-22T06:49:38;13.30;92.70
18779;DHT22;9518;51.720;14.384;2023-04-22T06:52:07;13.40;93.40
18779;DHT22;9518;51.720;14.384;2023-04-22T06:54:34;13.40;91.60
18779;DHT22;9518;51.720;14.384;2023-04-22T06:57:01;13.50;90.50
18779;DHT22;9518;51.720;14.384;2023-04-22T06:59:28;13.60;90.70
18779;DHT22;9518;51.720;14.384;2023-04-22T07:01:55;13.80;89.70
18779;DHT22;9518;51.720;14.384;2023-04-22T07:04:21;13.90;90.90
18779;DHT22;9518;51.720;14.384;2023-04-22T07:06:48;14.10;87.60
18779;DHT22;9518;51.720;14.384;2023-04-22T07:09:17;14.30;89.20
18779;DHT22;9518;51.720;14.384;2023-04-22T07:11:44;14.50;85.30
18779;DHT22;9518;51.720;14.384;2023-04-22T07:14:13;14.60;85.50
18779;DHT22;9518;51.720;14.384;2023-04-22T07:16:40;14.80;83.00
18779;DHT22;9518;51.720;14.384;2023-04-22T07:19:07;15.10;82.40
18779;DHT22;9518;51.720;14.384;2023-04-22T07:21:33;15.40;81.30
18779;DHT22;9518;51.720;14.384;2023-04-22T07:24:00;15.70;80.60
18779;DHT22;9518;51.720;14.384;2023-04-22T07:26:29;15.80;77.50
18779;DHT22;9518;51.720;14.384;2023-04-22T07:28:58;15.90;74.50
18779;DHT22;9518;51.720;14.384;2023-04-22T07:31:25;16.10;80.20
18779;DHT22;9518;51.720;14.384;2023-04-22T07:33:52;16.20;75.40
18779;DHT22;9518;51.720;14.384;2023-04-22T07:36:19;16.30;76.20
18779;DHT22;9518;51.720;14.384;2023-04-22T07:38:46;16.40;77.10
18779;DHT22;9518;51.720;14.384;2023-04-22T07:41:13;16.60;74.60
18779;DHT22;9518;51.720;14.384;2023-04-22T07:43:42;16.80;74.30
18779;DHT22;9518;51.720;14.384;2023-04-22T07:46:09;17.00;73.80
18779;DHT22;9518;51.720;14.384;2023-04-22T07:48:36;17.10;73.80
18779;DHT22;9518;51.720;14.384;2023-04-22T07:51:03;17.20;72.20
18779;DHT22;9518;51.720;14.384;2023-04-22T07:53:30;17.40;69.50
18779;DHT22;9518;51.720;14.384;2023-04-22T07:55:57;17.50;69.10
18779;DHT22;9518;51.720;14.384;2023-04-22T07:58:24;17.60;69.70
18779;DHT22;9518;51.720;14.384;2023-04-22T08:00:52;17.80;66.80
18779;DHT22;9518;51.720;14.384;2023-04-22T08:03:19;17.90;67.60
18779;DHT22;9518;51.720;14.384;2023-04-22T08:05:46;18.10;70.20
18779;DHT22;9518;51.720;14.384;2023-04-22T08:08:13;18.20;67.90
18779;DHT22;9518;51.720;14.384;2023-04-22T08:10:41;18.40;70.60
18779;DHT22;9518;51.720;14.384;2023-04-22T08:13:08;18.60;64.80
18779;DHT22;9518;51.720;14.384;2023-04-22T08:15:35;18.80;66.40
18779;DHT22;9518;51.720;14.384;2023-04-22T08:18:03;18.90;63.80
18779;DHT22;9518;51.720;14.384;2023-04-22T08:20:30;19.00;67.10
18779;DHT22;9518;51.720;14.384;2023-04-22T08:23:00;19.10;64.50
18779;DHT22;9518;51.720;14.384;2023-04-22T08:25:27;19.30;66.10
18779;DHT22;9518;51.720;14.384;2023-04-22T08:27:55;19.50;65.10
18779;DHT22;9518;51.720;14.384;2023-04-22T08:30:23;19.60;61.70
18779;DHT22;9518;51.720;14.384;2023-04-22T08:32:49;19.80;62.90
18779;DHT22;9518;51.720;14.384;2023-04-22T08:35:19;19.90;61.50
18779;DHT22;9518;51.720;14.384;2023-04-22T08:37:46;19.90;63.40
18779;DHT22;9518;51.720;14.384;2023-04-22T08:40:13;20.20;61.90
18779;DHT22;9518;51.720;14.384;2023-04-22T08:42:40;20.50;60.20
18779;DHT22;9518;51.720;14.384;2023-04-22T08:45:10;20.70;59.00
18779;DHT22;9518;51.720;14.384;2023-04-22T08:47:37;20.80;56.30
18779;DHT22;9518;51.720;14.384;2023-04-22T08:50:06;21.00;57.10
18779;DHT22;9518;51.720;14.384;2023-04-22T08:52:35;21.10;52.10
18779;DHT22;9518;51.720;14.384;2023-04-22T08:55:03;21.30;53.80
18779;DHT22;9518;51.720;14.384;2023-04-22T08:57:30;21.50;50.40
18779;DHT22;9518;51.720;14.384;2023-04-22T08:59:58;21.60;49.40
18779;DHT22;9518;51.720;14.384;2023-04-22T09:02:26;21.40;47.60
18779;DHT22;9518;51.720;14.384;2023-04-22T09:04:54;21.20;47.80
18779;DHT22;9518;51.720;14.384;2023-04-22T09:10:02;21.10;52.50
18779;DHT22;9518;51.720;14.384;2023-04-22T09:12:29;21.40;50.20
18779;DHT22;9518;51.720;14.384;2023-04-22T09:14:56;21.70;52.00
18779;DHT22;9518;51.720;14.384;2023-04-22T09:17:30;21.80;49.00
18779;DHT22;9518;51.720;14.384;2023-04-22T09:19:58;21.70;52.30
18779;DHT22;9518;51.720;14.384;2023-04-22T09:22:26;21.90;50.50
18779;DHT22;9518;51.720;14.384;2023-04-22T09:24:53;22.00;47.00
18779;DHT22;9518;51.720;14.384;2023-04-22T09:27:24;22.00;46.50
18779;DHT22;9518;51.720;14.384;2023-04-22T09:29:51;22.00;46.60
18779;DHT22;9518;51.720;14.384;2023-04-22T09:32:18;22.10;44.30
18779;DHT22;9518;51.720;14.384;2023-04-22T09:34:49;22.00;45.00
18779;DHT22;9518;51.720;14.384;2023-04-22T09:37:18;21.70;44.00
18779;DHT22;9518;51.720;14.384;2023-04-22T09:39:58;21.80;47.60
18779;DHT22;9518;51.720;14.384;2023-04-22T09:42:27;22.10;47.80
18779;DHT22;9518;51.720;14.384;2023-04-22T09:44:54;22.50;47.70
18779;DHT22;9518;51.720;14.384;2023-04-22T09:47:21;22.90;47.50
18779;DHT22;9518;51.720;14.384;2023-04-22T09:49:52;23.00;45.40
18779;DHT22;9518;51.720;14.384;2023-04-22T09:52:20;23.00;46.10
18779;DHT22;9518;51.720;14.384;2023-04-22T09:54:49;23.10;46.80
18779;DHT22;9518;51.720;14.384;2023-04-22T09:57:17;23.20;45.10
18779;DHT22;9518;51.720;14.384;2023-04-22T09:59:49;23.40;45.80
18779;DHT22;9518;51.720;14.384;2023-04-22T10:02:16;23.60;45.40
18779;DHT22;9518;51.720;14.384;2023-04-22T10:04:43;23.30;42.30
18779;DHT22;9518;51.720;14.384;2023-04-22T10:07:13;23.20;45.00
18779;DHT22;9518;51.720;14.384;2023-04-22T10:09:40;23.40;46.70
18779;DHT22;9518;51.720;14.384;2023-04-22T10:12:07;23.40;44.00
18779;DHT22;9518;51.720;14.384;2023-04-22T10:14:37;23.50;43.10
18779;DHT22;9518;51.720;14.384;2023-04-22T10:17:08;23.60;42.70
18779;DHT22;9518;51.720;14.384;2023-04-22T10:19:36;23.80;42.10
18779;DHT22;9518;51.720;14.384;2023-04-22T10:22:05;24.10;42.10
18779;DHT22;9518;51.720;14.384;2023-04-22T10:24:34;24.10;40.40
18779;DHT22;9518;51.720;14.384;2023-04-22T10:27:03;24.30;38.30
18779;DHT22;9518;51.720;14.384;2023-04-22T10:29:37;24.40;38.80
18779;DHT22;9518;51.720;14.384;2023-04-22T10:32:22;24.60;41.20
18779;DHT22;9518;51.720;14.384;2023-04-22T10:34:51;25.00;40.50
18779;DHT22;9518;51.720;14.384;2023-04-22T10:37:41;25.00;38.70
18779;DHT22;9518;51.720;14.384;2023-04-22T10:40:13;25.10;39.60
18779;DHT22;9518;51.720;14.384;2023-04-22T10:42:41;25.20;39.80
18779;DHT22;9518;51.720;14.384;2023-04-22T10:45:23;25.20;39.30
18779;DHT22;9518;51.720;14.384;2023-04-22T10:47:52;25.20;39.30
18779;DHT22;9518;51.720;14.384;2023-04-22T10:50:22;25.30;40.00
18779;DHT22;9518;51.720;14.384;2023-04-22T10:52:54;25.60;38.60
18779;DHT22;9518;51.720;14.384;2023-04-22T10:55:21;25.80;37.40
18779;DHT22;9518;51.720;14.384;2023-04-22T10:57:50;25.50;37.10
18779;DHT22;9518;51.720;14.384;2023-04-22T11:00:22;25.70;38.80
18779;DHT22;9518;51.720;14.384;2023-04-22T11:02:53;26.00;38.50
18779;DHT22;9518;51.720;14.384;2023-04-22T11:05:23;26.10;38.10
18779;DHT22;9518;51.720;14.384;2023-04-22T11:07:53;26.00;35.40
18779;DHT22;9518;51.720;14.384;2023-04-22T11:10:37;25.60;36.00
18779;DHT22;9518;51.720;14.384;2023-04-22T11:13:08;25.90;36.40
18779;DHT22;9518;51.720;14.384;2023-04-22T11:15:37;26.50;37.00
18779;DHT22;9518;51.720;14.384;2023-04-22T11:18:17;26.70;36.20
18779;DHT22;9518;51.720;14.384;2023-04-22T11:20:45;26.90;35.90
18779;DHT22;9518;51.720;14.384;2023-04-22T11:23:18;27.20;36.90
18779;DHT22;9518;51.720;14.384;2023-04-22T11:25:45;26.90;33.00
18779;DHT22;9518;51.720;14.384;2023-04-22T11:28:13;27.50;37.20
18779;DHT22;9518;51.720;14.384;2023-04-22T11:30:40;27.70;33.40
18779;DHT22;9518;51.720;14.384;2023-04-22T11:33:07;27.10;33.30
18779;DHT22;9518;51.720;14.384;2023-04-22T11:35:35;26.90;35.30
18779;DHT22;9518;51.720;14.384;2023-04-22T11:38:06;27.30;34.20
18779;DHT22;9518;51.720;14.384;2023-04-22T11:40:35;27.70;35.70
18779;DHT22;9518;51.720;14.384;2023-04-22T11:43:03;28.30;35.10
18779;DHT22;9518;51.720;14.384;2023-04-22T11:45:32;28.50;32.40
18779;DHT22;9518;51.720;14.384;2023-04-22T11:48:00;28.50;32.30
18779;DHT22;9518;51.720;14.384;2023-04-22T11:50:29;28.80;33.30
18779;DHT22;9518;51.720;14.384;2023-04-22T11:52:58;28.80;32.20
18779;DHT22;9518;51.720;14.384;2023-04-22T11:55:27;28.80;30.60
18779;DHT22;9518;51.720;14.384;2023-04-22T11:57:57;28.60;31.10
18779;DHT22;9518;51.720;14.384;2023-04-22T12:00:28;28.80;33.30
18779;DHT22;9518;51.720;14.384;2023-04-22T12:02:59;28.90;31.60
18779;DHT22;9518;51.720;14.384;2023-04-22T12:05:41;29.30;31.20
18779;DHT22;9518;51.720;14.384;2023-04-22T12:08:12;29.70;30.70
18779;DHT22;9518;51.720;14.384;2023-04-22T12:10:44;28.80;29.20
18779;DHT22;9518;51.720;14.384;2023-04-22T12:13:18;28.80;30.00
18779;DHT22;9518;51.720;14.384;2023-04-22T12:15:48;29.10;29.70
18779;DHT22;9518;51.720;14.384;2023-04-22T12:18:15;28.60;31.00
18779;DHT22;9518;51.720;14.384;2023-04-22T12:20:42;29.30;31.40
18779;DHT22;9518;51.720;14.384;2023-04-22T12:23:20;29.70;31.60
18779;DHT22;9518;51.720;14.384;2023-04-22T12:25:47;30.30;29.50
18779;DHT22;9518;51.720;14.384;2023-04-22T12:28:14;30.20;29.80
18779;DHT22;9518;51.720;14.384;2023-04-22T12:30:42;30.00;29.40
18779;DHT22;9518;51.720;14.384;2023-04-22T12:33:09;30.10;28.90
18779;DHT22;9518;51.720;14.384;2023-04-22T12:35:36;30.10;30.60
18779;DHT22;9518;51.720;14.384;2023-04-22T12:38:03;30.40;29.60
18779;DHT22;9518;51.720;14.384;2023-04-22T12:40:32;30.00;30.10
18779;DHT22;9518;51.720;14.384;2023-04-22T12:43:00;30.50;29.80
18779;DHT22;9518;51.720;14.384;2023-04-22T12:45:30;30.90;29.70
18779;DHT22;9518;51.720;14.384;2023-04-22T12:47:57;31.10;29.10
18779;DHT22;9518;51.720;14.384;2023-04-22T12:50:25;31.40;28.00
18779;DHT22;9518;51.720;14.384;2023-04-22T12:52:55;31.90;28.70
18779;DHT22;9518;51.720;14.384;2023-04-22T12:55:22;32.20;27.50
18779;DHT22;9518;51.720;14.384;2023-04-22T12:57:50;32.60;27.20
18779;DHT22;9518;51.720;14.384;2023-04-22T13:00:19;33.00;28.80
18779;DHT22;9518;51.720;14.384;2023-04-22T13:02:48;33.00;27.80
18779;DHT22;9518;51.720;14.384;2023-04-22T13:05:30;32.40;28.00
18779;DHT22;9518;51.720;14.384;2023-04-22T13:07:57;32.80;27.60
18779;DHT22;9518;51.720;14.384;2023-04-22T13:10:24;32.20;27.80
18779;DHT22;9518;51.720;14.384;2023-04-22T13:12:54;32.60;28.50
18779;DHT22;9518;51.720;14.384;2023-04-22T13:15:22;33.10;28.40
18779;DHT22;9518;51.720;14.384;2023-04-22T13:17:51;33.40;29.10
18779;DHT22;9518;51.720;14.384;2023-04-22T13:20:18;33.30;26.50
18779;DHT22;9518;51.720;14.384;2023-04-22T13:22:46;33.00;28.10
18779;DHT22;9518;51.720;14.384;2023-04-22T13:25:13;32.40;25.50
18779;DHT22;9518;51.720;14.384;2023-04-22T13:27:40;32.60;26.90
18779;DHT22;9518;51.720;14.384;2023-04-22T13:30:10;32.90;26.30
18779;DHT22;9518;51.720;14.384;2023-04-22T13:32:38;32.60;25.40
18779;DHT22;9518;51.720;14.384;2023-04-22T13:35:05;32.40;26.30
18779;DHT22;9518;51.720;14.384;2023-04-22T13:37:34;33.00;26.20
18779;DHT22;9518;51.720;14.384;2023-04-22T13:40:05;33.70;25.80
18779;DHT22;9518;51.720;14.384;2023-04-22T13:42:32;33.00;26.20
18779;DHT22;9518;51.720;14.384;2023-04-22T13:44:59;31.20;24.90
18779;DHT22;9518;51.720;14.384;2023-04-22T13:47:28;31.00;26.50
18779;DHT22;9518;51.720;14.384;2023-04-22T13:49:55;31.70;28.10
18779;DHT22;9518;51.720;14.384;2023-04-22T13:52:25;32.20;27.30
18779;DHT22;9518;51.720;14.384;2023-04-22T13:54:52;33.60;26.40
18779;DHT22;9518;51.720;14.384;2023-04-22T13:57:19;34.40;25.60
18779;DHT22;9518;51.720;14.384;2023-04-22T13:59:48;34.20;26.60
18779;DHT22;9518;51.720;14.384;2023-04-22T14:02:15;34.30;24.80
18779;DHT22;9518;51.720;14.384;2023-04-22T14:04:44;33.60;23.80
18779;DHT22;9518;51.720;14.384;2023-04-22T14:07:12;33.40;25.70
18779;DHT22;9518;51.720;14.384;2023-04-22T14:09:39;33.90;24.10
18779;DHT22;9518;51.720;14.384;2023-04-22T14:12:07;34.40;25.00
18779;DHT22;9518;51.720;14.384;2023-04-22T14:14:36;34.50;25.20
18779;DHT22;9518;51.720;14.384;2023-04-22T14:17:05;33.80;23.80
18779;DHT22;9518;51.720;14.384;2023-04-22T14:19:32;33.90;24.00
18779;DHT22;9518;51.720;14.384;2023-04-22T14:22:06;33.40;23.10
18779;DHT22;9518;51.720;14.384;2023-04-22T14:24:33;32.60;25.40
18779;DHT22;9518;51.720;14.384;2023-04-22T14:27:00;33.50;26.40
18779;DHT22;9518;51.720;14.384;2023-04-22T14:29:27;33.60;24.40
18779;DHT22;9518;51.720;14.384;2023-04-22T14:31:56;34.40;25.20
18779;DHT22;9518;51.720;14.384;2023-04-22T14:34:24;35.10;24.70
18779;DHT22;9518;51.720;14.384;2023-04-22T14:36:51;34.20;23.10
18779;DHT22;9518;51.720;14.384;2023-04-22T14:39:19;34.40;26.20
18779;DHT22;9518;51.720;14.384;2023-04-22T14:41:47;33.80;23.40
18779;DHT22;9518;51.720;14.384;2023-04-22T14:44:14;34.00;25.10
18779;DHT22;9518;51.720;14.384;2023-04-22T14:46:41;34.70;25.30
18779;DHT22;9518;51.720;14.384;2023-04-22T14:49:09;34.10;23.40
18779;DHT22;9518;51.720;14.384;2023-04-22T14:51:36;34.20;23.60
18779;DHT22;9518;51.720;14.384;2023-04-22T14:54:04;34.50;24.10
18779;DHT22;9518;51.720;14.384;2023-04-22T14:56:33;34.80;23.30
18779;DHT22;9518;51.720;14.384;2023-04-22T14:59:00;34.70;24.20
18779;DHT22;9518;51.720;14.384;2023-04-22T15:01:30;34.70;24.00
18779;DHT22;9518;51.720;14.384;2023-04-22T15:03:57;34.70;24.50
18779;DHT22;9518;51.720;14.384;2023-04-22T15:06:24;35.70;24.70
18779;DHT22;9518;51.720;14.384;2023-04-22T15:08:52;35.30;23.70
18779;DHT22;9518;51.720;14.384;2023-04-22T15:11:20;34.10;22.80
18779;DHT22;9518;51.720;14.384;2023-04-22T15:13:49;34.20;24.50
18779;DHT22;9518;51.720;14.384;2023-04-22T15:16:17;34.40;22.50
18779;DHT22;9518;51.720;14.384;2023-04-22T15:18:45;34.20;23.10
18779;DHT22;9518;51.720;14.384;2023-04-22T15:21:12;33.80;23.20
18779;DHT22;9518;51.720;14.384;2023-04-22T15:23:39;34.10;22.90
18779;DHT22;9518;51.720;14.384;2023-04-22T15:26:06;33.70;23.20
18779;DHT22;9518;51.720;14.384;2023-04-22T15:28:34;33.60;22.80
18779;DHT22;9518;51.720;14.384;2023-04-22T15:31:02;34.20;23.60
18779;DHT22;9518;51.720;14.384;2023-04-22T15:33:29;33.70;22.80
18779;DHT22;9518;51.720;14.384;2023-04-22T15:35:57;33.30;23.20
18779;DHT22;9518;51.720;14.384;2023-04-22T15:38:24;33.50;24.20
18779;DHT22;9518;51.720;14.384;2023-04-22T15:40:51;33.80;23.50
18779;DHT22;9518;51.720;14.384;2023-04-22T15:43:18;34.40;23.40
18779;DHT22;9518;51.720;14.384;2023-04-22T15:45:46;33.90;22.70
18779;DHT22;9518;51.720;14.384;2023-04-22T15:48:14;34.10;23.80